createdAt,value
2022-09-12T00:00:05.583Z,12.63
2022-09-12T00:02:33.386Z,13.50
2022-09-12T00:05:01.032Z,14.47
2022-09-12T00:07:28.673Z,12.93
2022-09-12T00:09:56.311Z,16.50
2022-09-12T00:12:23.973Z,13.80
2022-09-12T00:14:51.522Z,14.37
2022-09-12T00:17:20.537Z,14.17
2022-09-12T00:19:48.073Z,13.57
2022-09-12T00:22:15.603Z,12.03
2022-09-12T00:24:43.194Z,15.10
2022-09-12T00:27:10.783Z,15.30
2022-09-12T00:29:38.349Z,17.53
2022-09-12T00:32:05.912Z,15.53
2022-09-12T00:34:34.817Z,13.83
2022-09-12T00:37:02.385Z,15.13
2022-09-12T00:39:29.932Z,16.60
2022-09-12T00:41:57.542Z,15.57
2022-09-12T00:44:48.665Z,19.50
2022-09-12T00:47:20.479Z,14.07
2022-09-12T00:49:52.567Z,14.97
2022-09-12T00:52:25.362Z,17.37
2022-09-12T00:54:56.922Z,16.57
2022-09-12T00:57:28.787Z,15.80
2022-09-12T00:59:58.966Z,18.17
2022-09-12T01:02:26.927Z,19.07
2022-09-12T01:04:55.944Z,16.70
2022-09-12T01:07:23.944Z,17.57
2022-09-12T01:09:51.586Z,17.13
2022-09-12T01:12:19.178Z,16.97
2022-09-12T01:14:46.719Z,19.30
2022-09-12T01:17:15.204Z,18.27
2022-09-12T01:20:10.011Z,20.40
2022-09-12T01:23:10.762Z,17.77
2022-09-12T01:25:51.954Z,16.67
2022-09-12T01:28:32.494Z,17.90
2022-09-12T01:31:03.354Z,16.57
2022-09-12T01:33:39.636Z,17.63
2022-09-12T01:36:25.821Z,18.63
2022-09-12T01:38:59.221Z,18.67
2022-09-12T01:41:29.617Z,23.77
2022-09-12T01:44:03.137Z,20.93
2022-09-12T01:46:34.669Z,22.67
2022-09-12T01:49:03.864Z,18.93
2022-09-12T01:51:35.783Z,17.80
2022-09-12T01:54:08.074Z,19.33
2022-09-12T01:56:37.030Z,18.30
2022-09-12T01:59:07.548Z,23.60
2022-09-12T02:01:39.946Z,22.57
2022-09-12T02:04:11.495Z,20.40
2022-09-12T02:06:41.987Z,22.93
2022-09-12T02:09:12.074Z,21.23
2022-09-12T02:11:42.989Z,22.73
2022-09-12T02:14:12.948Z,22.30
2022-09-12T02:16:44.783Z,25.20
2022-09-12T02:19:15.660Z,21.63
2022-09-12T02:21:47.256Z,20.50
2022-09-12T02:24:15.882Z,20.53
2022-09-12T02:26:49.181Z,21.70
2022-09-12T02:29:16.876Z,19.50
2022-09-12T02:31:48.284Z,21.23
2022-09-12T02:34:27.176Z,22.33
2022-09-12T02:37:03.417Z,20.70
2022-09-12T02:39:31.018Z,19.47
2022-09-12T02:42:00.956Z,21.00
2022-09-12T02:44:29.710Z,21.63
2022-09-12T02:47:03.820Z,22.67
2022-09-12T02:49:31.402Z,23.63
2022-09-12T02:51:59.204Z,24.20
2022-09-12T02:54:26.854Z,27.43
2022-09-12T02:56:54.646Z,25.67
2022-09-12T02:59:24.152Z,25.27
2022-09-12T03:02:06.978Z,23.93
2022-09-12T03:04:48.200Z,26.53
2022-09-12T03:07:19.773Z,27.70
2022-09-12T03:09:51.062Z,25.93
2022-09-12T03:12:35.863Z,31.80
2022-09-12T03:15:16.392Z,25.57
2022-09-12T03:17:57.559Z,27.73
2022-09-12T03:20:34.276Z,25.87
2022-09-12T03:23:05.079Z,29.40
2022-09-12T03:25:36.890Z,30.37
2022-09-12T03:28:08.094Z,30.53
2022-09-12T03:30:38.984Z,29.80
2022-09-12T03:33:07.915Z,33.40
2022-09-12T03:35:35.447Z,26.63
2022-09-12T03:38:02.986Z,25.70
2022-09-12T03:40:30.515Z,29.80
2022-09-12T03:42:58.084Z,28.43
2022-09-12T03:45:25.701Z,28.43
2022-09-12T03:47:53.475Z,28.60
2022-09-12T03:50:22.369Z,25.00
2022-09-12T03:52:49.989Z,27.10
2022-09-12T03:55:17.791Z,30.80
2022-09-12T03:57:45.762Z,28.83
2022-09-12T04:00:19.055Z,34.20
2022-09-12T04:02:47.375Z,30.47
2022-09-12T04:05:15.023Z,31.63
2022-09-12T04:07:44.039Z,29.03
2022-09-12T04:10:11.750Z,25.70
2022-09-12T04:12:39.687Z,36.17
2022-09-12T04:15:08.654Z,29.67
2022-09-12T04:17:37.012Z,27.90
2022-09-12T04:20:05.124Z,29.93
2022-09-12T04:22:33.269Z,26.77
2022-09-12T04:25:02.205Z,27.17
2022-09-12T04:27:29.770Z,27.80
2022-09-12T04:29:57.425Z,28.20
2022-09-12T04:32:25.023Z,31.80
2022-09-12T04:34:53.373Z,32.27
2022-09-12T04:37:21.202Z,31.07
2022-09-12T04:39:49.670Z,31.27
2022-09-12T04:42:18.705Z,34.00
2022-09-12T04:44:46.237Z,29.30
2022-09-12T04:47:13.905Z,32.20
2022-09-12T04:49:41.417Z,30.00
2022-09-12T04:52:09.023Z,27.90
2022-09-12T04:54:36.581Z,30.73
2022-09-12T04:57:04.467Z,29.23
2022-09-12T04:59:33.352Z,31.50
2022-09-12T05:02:01.010Z,27.80
2022-09-12T05:04:31.543Z,29.57
2022-09-12T05:06:59.902Z,28.93
2022-09-12T05:09:27.731Z,28.23
2022-09-12T05:12:04.685Z,30.40
2022-09-12T05:14:34.878Z,29.10
2022-09-12T05:17:02.913Z,31.37
2022-09-12T05:19:31.270Z,26.70
2022-09-12T05:21:58.945Z,30.93
2022-09-12T05:24:26.799Z,27.27
2022-09-12T05:26:54.401Z,31.50
2022-09-12T05:29:21.920Z,27.53
2022-09-12T05:31:52.157Z,28.13
2022-09-12T05:34:20.110Z,26.43
2022-09-12T05:36:47.703Z,29.20
2022-09-12T05:39:15.534Z,29.83
2022-09-12T05:41:43.241Z,29.20
2022-09-12T05:44:13.989Z,33.73
2022-09-12T05:46:43.086Z,39.90
2022-09-12T05:49:13.608Z,27.97
2022-09-12T05:51:42.743Z,26.10
2022-09-12T05:54:12.244Z,28.97
2022-09-12T05:56:40.842Z,30.03
2022-09-12T05:59:11.967Z,28.63
2022-09-12T06:01:39.954Z,26.27
2022-09-12T06:04:08.043Z,29.30
2022-09-12T06:06:39.239Z,27.10
2022-09-12T06:09:07.279Z,27.27
2022-09-12T06:11:37.165Z,25.03
2022-09-12T06:14:05.369Z,29.63
2022-09-12T06:16:34.465Z,25.70
2022-09-12T06:19:03.280Z,27.23
2022-09-12T06:21:31.901Z,25.03
2022-09-12T06:24:01.352Z,23.83
2022-09-12T06:26:29.974Z,22.67
2022-09-12T06:28:59.595Z,23.07
2022-09-12T06:31:29.085Z,21.77
2022-09-12T06:33:58.060Z,26.27
2022-09-12T06:36:27.265Z,22.97
2022-09-12T06:38:56.109Z,22.63
2022-09-12T06:41:25.968Z,21.33
2022-09-12T06:43:54.208Z,19.97
2022-09-12T06:46:22.425Z,20.77
2022-09-12T06:48:50.502Z,21.23
2022-09-12T06:51:20.011Z,18.80
2022-09-12T06:53:48.415Z,17.50
2022-09-12T06:56:17.419Z,22.17
2022-09-12T06:58:47.012Z,18.20
2022-09-12T07:01:16.543Z,16.93
2022-09-12T07:03:47.992Z,17.33
2022-09-12T07:06:17.370Z,15.47
2022-09-12T07:08:45.843Z,16.43
2022-09-12T07:11:15.316Z,16.70
2022-09-12T07:13:44.763Z,16.63
2022-09-12T07:16:19.182Z,14.43
2022-09-12T07:18:51.436Z,15.93
2022-09-12T07:21:19.149Z,18.40
2022-09-12T07:23:47.365Z,18.67
2022-09-12T07:26:15.870Z,15.50
2022-09-12T07:28:43.965Z,16.93
2022-09-12T07:31:15.438Z,15.73
2022-09-12T07:33:43.562Z,17.77
2022-09-12T07:36:13.858Z,16.13
2022-09-12T07:38:41.955Z,15.43
2022-09-12T07:41:13.601Z,18.47
2022-09-12T07:43:41.732Z,13.60
2022-09-12T07:46:09.624Z,17.03
2022-09-12T07:48:39.085Z,16.07
2022-09-12T07:51:08.558Z,15.43
2022-09-12T07:53:37.482Z,15.83
2022-09-12T07:56:05.472Z,17.90
2022-09-12T07:58:34.486Z,15.93
2022-09-12T08:01:05.898Z,17.27
2022-09-12T08:03:33.526Z,14.50
2022-09-12T08:06:07.150Z,17.17
2022-09-12T08:08:35.212Z,17.07
2022-09-12T08:11:05.938Z,14.67
2022-09-12T08:13:34.577Z,16.73
2022-09-12T08:16:03.845Z,14.50
2022-09-12T08:18:32.616Z,16.07
2022-09-12T08:21:00.610Z,14.70
2022-09-12T08:23:30.162Z,14.70
2022-09-12T08:25:58.313Z,15.50
2022-09-12T08:28:26.365Z,17.10
2022-09-12T08:30:54.375Z,14.17
2022-09-12T08:33:22.119Z,14.37
2022-09-12T08:35:49.690Z,14.70
2022-09-12T08:38:17.305Z,17.33
2022-09-12T08:40:53.503Z,13.63
2022-09-12T08:43:31.516Z,14.30
2022-09-12T08:46:03.958Z,14.33
2022-09-12T08:48:31.691Z,14.00
2022-09-12T08:50:59.658Z,13.80
2022-09-12T08:53:29.201Z,15.00
2022-09-12T08:56:00.199Z,14.10
2022-09-12T08:58:29.728Z,12.70
2022-09-12T09:01:02.835Z,13.23
2022-09-12T09:03:54.186Z,14.17
2022-09-12T09:06:35.288Z,13.07
2022-09-12T09:09:07.423Z,13.07
2022-09-12T09:11:48.224Z,16.53
2022-09-12T09:14:42.921Z,13.27
2022-09-12T09:17:11.937Z,15.70
2022-09-12T09:19:42.431Z,14.60
2022-09-12T09:22:15.465Z,13.67
2022-09-12T09:24:47.198Z,16.47
2022-09-12T09:27:40.032Z,13.93
2022-09-12T09:30:14.142Z,12.20
2022-09-12T09:32:42.539Z,12.03
2022-09-12T09:35:16.985Z,14.43
2022-09-12T09:37:46.068Z,12.77
2022-09-12T09:40:19.118Z,12.97
2022-09-12T09:42:54.919Z,11.80
2022-09-12T09:45:24.917Z,13.47
2022-09-12T09:47:54.381Z,12.23
2022-09-12T09:50:22.144Z,11.00
2022-09-12T09:52:51.323Z,11.23
2022-09-12T09:55:22.227Z,11.27
2022-09-12T09:57:52.377Z,11.47
2022-09-12T10:00:25.803Z,13.67
2022-09-12T10:03:02.417Z,11.73
2022-09-12T10:05:31.198Z,10.60
2022-09-12T10:07:58.904Z,15.67
2022-09-12T10:10:26.512Z,8.93
2022-09-12T10:13:08.345Z,10.90
2022-09-12T10:15:36.507Z,11.20
2022-09-12T10:18:05.755Z,9.97
2022-09-12T10:20:35.855Z,11.77
2022-09-12T10:23:29.437Z,9.20
2022-09-12T10:26:00.758Z,8.70
2022-09-12T10:28:34.254Z,6.93
2022-09-12T10:31:02.637Z,8.40
2022-09-12T10:33:31.550Z,6.43
2022-09-12T10:35:59.262Z,9.57
2022-09-12T10:38:29.117Z,7.60
2022-09-12T10:40:59.155Z,7.57
2022-09-12T10:43:28.973Z,7.30
2022-09-12T10:46:00.523Z,6.63
2022-09-12T10:48:31.634Z,8.40
2022-09-12T10:51:02.211Z,7.70
2022-09-12T10:53:34.543Z,7.13
2022-09-12T10:56:12.183Z,5.63
2022-09-12T10:59:11.839Z,5.77
2022-09-12T11:01:44.130Z,5.47
2022-09-12T11:04:25.934Z,6.63
2022-09-12T11:07:03.517Z,6.00
2022-09-12T11:09:40.024Z,5.60
2022-09-12T11:12:15.568Z,6.00
2022-09-12T11:14:59.364Z,5.53
2022-09-12T11:17:37.661Z,7.10
2022-09-12T11:20:26.917Z,6.50
2022-09-12T11:23:08.948Z,6.77
2022-09-12T11:25:41.542Z,6.00
2022-09-12T11:28:30.053Z,5.83
2022-09-12T11:31:19.251Z,5.27
2022-09-12T11:33:54.941Z,4.33
2022-09-12T11:36:29.571Z,5.20
2022-09-12T11:39:04.881Z,5.40
2022-09-12T11:41:34.466Z,4.83
2022-09-12T11:44:05.913Z,5.80
2022-09-12T11:46:37.169Z,7.40
2022-09-12T11:49:25.729Z,10.10
2022-09-12T11:51:56.416Z,5.13
2022-09-12T11:54:27.525Z,5.20
2022-09-12T11:57:03.031Z,5.23
2022-09-12T11:59:35.067Z,5.37
2022-09-12T12:02:03.048Z,4.37
2022-09-12T12:04:37.619Z,3.97
2022-09-12T12:07:07.609Z,4.30
2022-09-12T12:09:35.350Z,3.90
2022-09-12T12:12:06.742Z,4.70
2022-09-12T12:14:40.176Z,3.77
2022-09-12T12:17:15.525Z,3.23
2022-09-12T12:19:44.749Z,3.63
2022-09-12T12:22:19.653Z,6.10
2022-09-12T12:25:05.771Z,3.87
2022-09-12T12:27:55.021Z,3.67
2022-09-12T12:31:05.365Z,3.37
2022-09-12T12:34:15.979Z,3.60
2022-09-12T12:36:44.968Z,4.53
2022-09-12T12:40:05.531Z,3.70
2022-09-12T12:43:07.615Z,3.93
2022-09-12T12:46:06.802Z,4.33
2022-09-12T12:48:59.884Z,4.60
2022-09-12T12:51:31.791Z,5.78
2022-09-12T12:54:01.481Z,4.13
2022-09-12T12:56:40.403Z,3.80
2022-09-12T12:59:17.975Z,3.10
2022-09-12T13:01:55.009Z,3.77
2022-09-12T13:04:24.244Z,3.53
2022-09-12T13:06:58.834Z,3.97
2022-09-12T13:09:31.148Z,4.25
2022-09-12T13:12:04.264Z,3.80
2022-09-12T13:14:49.250Z,4.75
2022-09-12T13:17:21.511Z,4.40
2022-09-12T13:19:49.775Z,5.60
2022-09-12T13:22:17.884Z,4.57
2022-09-12T13:24:52.121Z,2.80
2022-09-12T13:27:21.690Z,3.40
2022-09-12T13:29:49.703Z,3.22
2022-09-12T13:32:17.822Z,3.60
2022-09-12T13:34:56.735Z,3.45
2022-09-12T13:37:32.941Z,4.13
2022-09-12T13:40:13.703Z,5.50
2022-09-12T13:42:42.469Z,3.40
2022-09-12T13:45:15.948Z,3.55
2022-09-12T13:47:44.584Z,3.55
2022-09-12T13:50:18.266Z,3.90
2022-09-12T13:52:49.909Z,3.83
2022-09-12T13:55:29.119Z,2.80
2022-09-12T13:58:02.071Z,6.85
2022-09-12T14:00:32.084Z,4.43
2022-09-12T14:03:17.537Z,3.13
2022-09-12T14:05:47.075Z,3.63
2022-09-12T14:08:15.388Z,2.65
2022-09-12T14:10:47.784Z,2.78
2022-09-12T14:13:20.101Z,2.63
2022-09-12T14:15:50.288Z,3.83
2022-09-12T14:18:26.101Z,2.42
2022-09-12T14:20:57.412Z,3.08
2022-09-12T14:23:29.576Z,4.10
2022-09-12T14:25:59.929Z,4.55
2022-09-12T14:28:29.631Z,2.50
2022-09-12T14:31:06.375Z,2.83
2022-09-12T14:33:35.678Z,3.67
2022-09-12T14:36:12.118Z,4.60
2022-09-12T14:38:42.734Z,10.88
2022-09-12T14:41:13.392Z,5.63
2022-09-12T14:43:43.782Z,10.55
2022-09-12T14:46:17.884Z,4.35
2022-09-12T14:48:48.573Z,15.23
2022-09-12T14:51:20.980Z,4.55
2022-09-12T14:53:49.721Z,3.20
2022-09-12T14:56:22.238Z,4.13
2022-09-12T14:58:50.314Z,2.40
2022-09-12T15:01:27.774Z,2.60
2022-09-12T15:03:57.429Z,2.88
2022-09-12T15:06:29.296Z,1.85
2022-09-12T15:08:59.112Z,4.30
2022-09-12T15:11:28.082Z,2.33
2022-09-12T15:13:55.643Z,2.15
2022-09-12T15:16:23.362Z,1.95
2022-09-12T15:18:51.025Z,3.63
2022-09-12T15:21:20.207Z,4.25
2022-09-12T15:23:48.784Z,4.63
2022-09-12T15:26:18.086Z,2.25
2022-09-12T15:28:47.199Z,2.33
2022-09-12T15:31:23.220Z,3.38
2022-09-12T15:33:50.873Z,1.80
2022-09-12T15:36:20.640Z,2.70
2022-09-12T15:38:49.083Z,2.67
2022-09-12T15:41:18.851Z,1.52
2022-09-12T15:43:48.513Z,1.60
2022-09-12T15:46:17.685Z,1.95
2022-09-12T15:48:45.245Z,2.03
2022-09-12T15:51:15.388Z,4.10
2022-09-12T15:53:43.709Z,2.33
2022-09-12T15:56:11.259Z,1.90
2022-09-12T15:58:54.663Z,1.55
2022-09-12T16:01:27.140Z,2.17
2022-09-12T16:03:54.838Z,4.32
2022-09-12T16:06:23.392Z,3.55
2022-09-12T16:08:51.014Z,1.50
2022-09-12T16:11:21.585Z,2.28
2022-09-12T16:13:49.599Z,2.83
2022-09-12T16:16:17.228Z,1.52
2022-09-12T16:18:46.364Z,4.10
2022-09-12T16:21:15.495Z,1.98
2022-09-12T16:23:43.760Z,1.60
2022-09-12T16:26:11.434Z,3.30
2022-09-12T16:28:39.093Z,4.20
2022-09-12T16:31:08.450Z,1.40
2022-09-12T16:33:36.057Z,1.60
2022-09-12T16:36:06.774Z,1.63
2022-09-12T16:38:35.813Z,1.35
2022-09-12T16:41:03.865Z,1.40
2022-09-12T16:43:32.041Z,1.77
2022-09-12T16:46:03.915Z,1.95
2022-09-12T16:48:31.527Z,2.88
2022-09-12T16:51:01.389Z,3.67
2022-09-12T16:53:32.335Z,2.80
2022-09-12T16:56:00.035Z,1.65
2022-09-12T16:58:28.071Z,1.93
2022-09-12T17:01:01.396Z,5.97
2022-09-12T17:03:28.966Z,1.57
2022-09-12T17:06:01.125Z,1.70
2022-09-12T17:08:28.836Z,1.60
2022-09-12T17:11:02.214Z,1.60
2022-09-12T17:13:52.912Z,1.50
2022-09-12T17:16:18.478Z,1.67
2022-09-12T17:18:46.746Z,2.53
2022-09-12T17:21:14.959Z,2.00
2022-09-12T17:23:42.806Z,1.67
2022-09-12T17:26:12.367Z,6.17
2022-09-12T17:28:41.010Z,2.67
2022-09-12T17:31:10.148Z,3.73
2022-09-12T17:33:39.045Z,1.53
2022-09-12T17:36:09.222Z,4.40
2022-09-12T17:38:38.494Z,4.07
2022-09-12T17:41:07.111Z,2.07
2022-09-12T17:43:37.799Z,3.07
2022-09-12T17:46:05.926Z,4.07
2022-09-12T17:48:33.696Z,2.17
2022-09-12T17:51:08.579Z,3.70
2022-09-12T17:53:36.172Z,5.73
2022-09-12T17:56:04.605Z,3.97
2022-09-12T17:58:32.323Z,3.10
2022-09-12T18:01:23.513Z,1.57
2022-09-12T18:03:51.967Z,3.30
2022-09-12T18:06:19.540Z,1.93
2022-09-12T18:08:47.083Z,4.20
2022-09-12T18:11:14.779Z,1.67
2022-09-12T18:13:42.495Z,2.33
2022-09-12T18:16:12.833Z,2.70
2022-09-12T18:18:40.771Z,3.47
2022-09-12T18:21:09.407Z,2.77
2022-09-12T18:23:37.033Z,1.90
2022-09-12T18:26:06.453Z,2.10
2022-09-12T18:28:34.504Z,2.80
2022-09-12T18:31:02.092Z,5.47
2022-09-12T18:33:31.022Z,1.90
2022-09-12T18:35:58.623Z,2.63
2022-09-12T18:38:26.163Z,4.03
2022-09-12T18:41:02.549Z,1.80
2022-09-12T18:43:30.107Z,2.10
2022-09-12T18:45:57.903Z,3.83
2022-09-12T18:48:25.501Z,2.50
2022-09-12T18:50:54.414Z,5.00
2022-09-12T18:53:22.046Z,2.47
2022-09-12T18:55:52.340Z,2.83
2022-09-12T18:58:19.889Z,4.00
2022-09-12T19:00:49.137Z,2.17
2022-09-12T19:03:16.695Z,2.33
2022-09-12T19:05:44.271Z,5.90
2022-09-12T19:08:13.242Z,5.60
2022-09-12T19:10:40.833Z,4.60
2022-09-12T19:13:08.407Z,4.03
2022-09-12T19:15:40.628Z,2.20
2022-09-12T19:18:09.457Z,2.33
2022-09-12T19:20:38.231Z,3.37
2022-09-12T19:23:05.830Z,3.53
2022-09-12T19:25:34.721Z,5.40
2022-09-12T19:28:02.539Z,3.93
2022-09-12T19:30:30.109Z,2.50
2022-09-12T19:32:58.205Z,5.00
2022-09-12T19:35:25.948Z,6.00
2022-09-12T19:37:53.735Z,1.90
2022-09-12T19:40:21.385Z,1.47
2022-09-12T19:42:50.539Z,1.97
2022-09-12T19:45:18.099Z,2.10
2022-09-12T19:47:45.736Z,3.03
2022-09-12T19:50:13.383Z,1.70
2022-09-12T19:52:41.034Z,2.00
2022-09-12T19:55:10.058Z,1.80
2022-09-12T19:57:37.716Z,5.93
2022-09-12T20:00:07.818Z,1.67
2022-09-12T20:02:35.409Z,4.07
2022-09-12T20:05:03.105Z,2.77
2022-09-12T20:07:30.736Z,1.50
2022-09-12T20:09:58.517Z,4.67
2022-09-12T20:12:26.047Z,3.10
2022-09-12T20:14:53.641Z,3.93
2022-09-12T20:17:22.629Z,1.57
2022-09-12T20:19:50.291Z,3.77
2022-09-12T20:22:18.927Z,2.43
2022-09-12T20:24:46.629Z,2.73
2022-09-12T20:27:14.422Z,2.77
2022-09-12T20:29:42.257Z,2.43
2022-09-12T20:32:09.963Z,3.27
2022-09-12T20:34:38.888Z,2.17
2022-09-12T20:37:06.691Z,4.17
2022-09-12T20:39:34.370Z,3.10
2022-09-12T20:42:02.010Z,2.80
2022-09-12T20:44:30.250Z,4.63
2022-09-12T20:46:58.411Z,3.10
2022-09-12T20:49:26.040Z,2.03
2022-09-12T20:51:55.140Z,2.37
2022-09-12T20:54:22.844Z,2.03
2022-09-12T20:56:50.424Z,3.50
2022-09-12T20:59:18.007Z,2.20
2022-09-12T21:01:45.754Z,2.93
2022-09-12T21:04:15.253Z,1.87
2022-09-12T21:06:43.021Z,4.30
2022-09-12T21:09:12.228Z,2.03
2022-09-12T21:11:39.787Z,5.30
2022-09-12T21:14:07.536Z,3.67
2022-09-12T21:16:38.481Z,2.03
2022-09-12T21:19:07.316Z,4.27
2022-09-12T21:21:35.019Z,2.10
2022-09-12T21:24:03.718Z,1.87
2022-09-12T21:26:33.102Z,4.03
2022-09-12T21:29:00.789Z,2.23
2022-09-12T21:31:28.457Z,2.00
2022-09-12T21:33:56.290Z,3.80
2022-09-12T21:36:25.397Z,1.90
2022-09-12T21:38:53.013Z,2.87
2022-09-12T21:41:20.570Z,2.80
2022-09-12T21:43:49.763Z,4.57
2022-09-12T21:46:17.542Z,2.17
2022-09-12T21:48:45.352Z,2.10
2022-09-12T21:51:13.094Z,2.47
2022-09-12T21:53:41.156Z,3.37
2022-09-12T21:56:09.892Z,3.27
2022-09-12T21:58:37.654Z,3.27
2022-09-12T22:01:08.752Z,2.20
2022-09-12T22:03:36.548Z,2.00
2022-09-12T22:06:06.016Z,2.27
2022-09-12T22:08:34.843Z,5.50
2022-09-12T22:11:04.449Z,4.60
2022-09-12T22:13:32.534Z,4.90
2022-09-12T22:16:02.831Z,2.70
2022-09-12T22:18:33.189Z,1.80
2022-09-12T22:21:02.679Z,2.43
2022-09-12T22:23:48.396Z,4.37
2022-09-12T22:26:16.612Z,2.70
2022-09-12T22:28:44.609Z,2.30
2022-09-12T22:31:12.966Z,4.47
2022-09-12T22:33:42.021Z,2.57
2022-09-12T22:36:10.710Z,4.03
2022-09-12T22:38:38.527Z,3.93
2022-09-12T22:41:06.662Z,3.77
2022-09-12T22:43:35.205Z,6.73
2022-09-12T22:46:03.020Z,3.90
2022-09-12T22:48:30.581Z,2.77
2022-09-12T22:50:59.491Z,2.83
2022-09-12T22:53:27.243Z,5.90
2022-09-12T22:55:54.964Z,5.83
2022-09-12T22:58:22.649Z,6.63
2022-09-12T23:00:51.609Z,2.73
2022-09-12T23:03:20.053Z,2.67
2022-09-12T23:05:48.460Z,2.50
2022-09-12T23:08:19.433Z,5.60
2022-09-12T23:10:46.994Z,4.37
2022-09-12T23:13:14.984Z,3.47
2022-09-12T23:15:42.535Z,2.63
2022-09-12T23:18:10.122Z,4.80
2022-09-12T23:20:37.870Z,2.50
2022-09-12T23:23:05.483Z,3.17
2022-09-12T23:25:34.878Z,2.57
2022-09-12T23:28:02.815Z,2.73
2022-09-12T23:30:32.005Z,5.17
2022-09-12T23:33:00.391Z,3.03
2022-09-12T23:35:27.922Z,5.00
2022-09-12T23:37:55.652Z,3.77
2022-09-12T23:40:23.264Z,3.57
2022-09-12T23:42:52.233Z,4.73
2022-09-12T23:45:19.782Z,4.57
2022-09-12T23:47:47.329Z,3.40
2022-09-12T23:50:15.076Z,5.23
2022-09-12T23:52:42.596Z,3.10
2022-09-12T23:55:10.562Z,3.50
2022-09-12T23:57:39.289Z,5.07
